sensor_id;sensor_type;location;lat;lon;timestamp;P1;durP1;ratioP1;P2;durP2;ratioP2
9629;SDS011;16022;50.884;4.698;2022-07-26T00:01:16;5.10;;;2.03;;
9629;SDS011;16022;50.884;4.698;2022-07-26T00:03:44;8.07;;;2.08;;
9629;SDS011;16022;50.884;4.698;2022-07-26T00:06:11;7.10;;;2.00;;
9629;SDS011;16022;50.884;4.698;2022-07-26T00:08:39;11.77;;;2.70;;
9629;SDS011;16022;50.884;4.698;2022-07-26T00:11:07;7.93;;;2.17;;
9629;SDS011;16022;50.884;4.698;2022-07-26T00:13:35;8.93;;;2.50;;
9629;SDS011;16022;50.884;4.698;2022-07-26T00:16:02;9.68;;;2.42;;
9629;SDS011;16022;50.884;4.698;2022-07-26T00:18:30;9.32;;;2.42;;
9629;SDS011;16022;50.884;4.698;2022-07-26T00:20:59;9.07;;;2.50;;
9629;SDS011;16022;50.884;4.698;2022-07-26T00:23:26;9.35;;;2.30;;
9629;SDS011;16022;50.884;4.698;2022-07-26T00:25:54;5.72;;;2.30;;
9629;SDS011;16022;50.884;4.698;2022-07-26T00:28:22;3.88;;;1.88;;
9629;SDS011;16022;50.884;4.698;2022-07-26T00:30:49;9.25;;;2.53;;
9629;SDS011;16022;50.884;4.698;2022-07-26T00:33:17;7.72;;;2.47;;
9629;SDS011;16022;50.884;4.698;2022-07-26T00:35:44;5.55;;;2.60;;
9629;SDS011;16022;50.884;4.698;2022-07-26T00:38:12;7.65;;;2.63;;
9629;SDS011;16022;50.884;4.698;2022-07-26T00:40:40;8.68;;;2.60;;
9629;SDS011;16022;50.884;4.698;2022-07-26T00:43:07;9.35;;;2.50;;
9629;SDS011;16022;50.884;4.698;2022-07-26T00:45:35;6.50;;;2.45;;
9629;SDS011;16022;50.884;4.698;2022-07-26T00:48:02;6.25;;;2.33;;
9629;SDS011;16022;50.884;4.698;2022-07-26T00:50:30;8.50;;;3.20;;
9629;SDS011;16022;50.884;4.698;2022-07-26T00:52:58;11.00;;;2.70;;
9629;SDS011;16022;50.884;4.698;2022-07-26T00:55:26;6.78;;;2.70;;
9629;SDS011;16022;50.884;4.698;2022-07-26T00:57:54;11.63;;;2.70;;
9629;SDS011;16022;50.884;4.698;2022-07-26T01:00:23;13.25;;;3.13;;
9629;SDS011;16022;50.884;4.698;2022-07-26T01:02:53;8.48;;;2.65;;
9629;SDS011;16022;50.884;4.698;2022-07-26T01:05:21;7.63;;;2.30;;
9629;SDS011;16022;50.884;4.698;2022-07-26T01:07:49;6.38;;;2.53;;
9629;SDS011;16022;50.884;4.698;2022-07-26T01:10:18;8.43;;;2.60;;
9629;SDS011;16022;50.884;4.698;2022-07-26T01:12:46;12.85;;;2.90;;
9629;SDS011;16022;50.884;4.698;2022-07-26T01:15:14;9.45;;;2.53;;
9629;SDS011;16022;50.884;4.698;2022-07-26T01:17:42;6.57;;;2.42;;
9629;SDS011;16022;50.884;4.698;2022-07-26T01:20:11;6.65;;;2.40;;
9629;SDS011;16022;50.884;4.698;2022-07-26T01:22:38;6.43;;;2.30;;
9629;SDS011;16022;50.884;4.698;2022-07-26T01:25:07;6.90;;;2.78;;
9629;SDS011;16022;50.884;4.698;2022-07-26T01:27:34;9.50;;;2.67;;
9629;SDS011;16022;50.884;4.698;2022-07-26T01:30:09;8.93;;;2.88;;
9629;SDS011;16022;50.884;4.698;2022-07-26T01:32:37;10.52;;;3.00;;
9629;SDS011;16022;50.884;4.698;2022-07-26T01:35:05;10.57;;;3.17;;
9629;SDS011;16022;50.884;4.698;2022-07-26T01:37:33;11.48;;;2.85;;
9629;SDS011;16022;50.884;4.698;2022-07-26T01:40:00;8.02;;;2.50;;
9629;SDS011;16022;50.884;4.698;2022-07-26T01:42:28;11.80;;;3.45;;
9629;SDS011;16022;50.884;4.698;2022-07-26T01:44:55;8.10;;;2.80;;
9629;SDS011;16022;50.884;4.698;2022-07-26T01:47:26;10.38;;;3.00;;
9629;SDS011;16022;50.884;4.698;2022-07-26T01:57:30;10.65;;;3.15;;
9629;SDS011;16022;50.884;4.698;2022-07-26T01:59:57;10.00;;;3.20;;
9629;SDS011;16022;50.884;4.698;2022-07-26T02:02:24;8.25;;;2.80;;
9629;SDS011;16022;50.884;4.698;2022-07-26T02:04:52;9.27;;;2.65;;
9629;SDS011;16022;50.884;4.698;2022-07-26T02:07:27;9.98;;;2.97;;
9629;SDS011;16022;50.884;4.698;2022-07-26T02:09:58;12.68;;;2.83;;
9629;SDS011;16022;50.884;4.698;2022-07-26T02:12:26;8.80;;;3.10;;
9629;SDS011;16022;50.884;4.698;2022-07-26T02:14:53;11.43;;;3.00;;
9629;SDS011;16022;50.884;4.698;2022-07-26T02:17:21;10.02;;;2.85;;
9629;SDS011;16022;50.884;4.698;2022-07-26T02:19:49;11.30;;;3.53;;
9629;SDS011;16022;50.884;4.698;2022-07-26T02:22:18;10.40;;;2.92;;
9629;SDS011;16022;50.884;4.698;2022-07-26T02:24:46;8.30;;;2.65;;
9629;SDS011;16022;50.884;4.698;2022-07-26T02:27:13;11.98;;;3.40;;
9629;SDS011;16022;50.884;4.698;2022-07-26T02:29:41;14.30;;;3.58;;
9629;SDS011;16022;50.884;4.698;2022-07-26T02:32:09;10.18;;;3.35;;
9629;SDS011;16022;50.884;4.698;2022-07-26T02:34:37;8.48;;;3.08;;
9629;SDS011;16022;50.884;4.698;2022-07-26T02:37:06;16.15;;;3.45;;
9629;SDS011;16022;50.884;4.698;2022-07-26T02:39:37;9.85;;;3.58;;
9629;SDS011;16022;50.884;4.698;2022-07-26T02:42:05;10.43;;;3.28;;
9629;SDS011;16022;50.884;4.698;2022-07-26T02:44:34;11.95;;;2.80;;
9629;SDS011;16022;50.884;4.698;2022-07-26T02:47:02;12.23;;;3.33;;
9629;SDS011;16022;50.884;4.698;2022-07-26T02:49:30;10.65;;;3.03;;
9629;SDS011;16022;50.884;4.698;2022-07-26T02:51:57;8.93;;;3.35;;
9629;SDS011;16022;50.884;4.698;2022-07-26T02:54:25;12.57;;;3.28;;
9629;SDS011;16022;50.884;4.698;2022-07-26T02:56:53;7.97;;;3.05;;
9629;SDS011;16022;50.884;4.698;2022-07-26T02:59:20;8.52;;;3.13;;
9629;SDS011;16022;50.884;4.698;2022-07-26T03:01:48;13.20;;;3.45;;
9629;SDS011;16022;50.884;4.698;2022-07-26T03:04:15;10.98;;;3.40;;
9629;SDS011;16022;50.884;4.698;2022-07-26T03:06:43;9.77;;;3.10;;
9629;SDS011;16022;50.884;4.698;2022-07-26T03:09:11;17.23;;;4.10;;
9629;SDS011;16022;50.884;4.698;2022-07-26T03:11:38;17.42;;;3.60;;
9629;SDS011;16022;50.884;4.698;2022-07-26T03:14:07;9.93;;;3.58;;
9629;SDS011;16022;50.884;4.698;2022-07-26T03:16:35;9.88;;;3.05;;
9629;SDS011;16022;50.884;4.698;2022-07-26T03:19:03;15.18;;;3.63;;
9629;SDS011;16022;50.884;4.698;2022-07-26T03:21:31;13.85;;;3.95;;
9629;SDS011;16022;50.884;4.698;2022-07-26T03:23:58;13.60;;;3.88;;
9629;SDS011;16022;50.884;4.698;2022-07-26T03:26:26;13.20;;;3.28;;
9629;SDS011;16022;50.884;4.698;2022-07-26T03:28:54;10.40;;;3.30;;
9629;SDS011;16022;50.884;4.698;2022-07-26T03:31:22;10.65;;;3.45;;
9629;SDS011;16022;50.884;4.698;2022-07-26T03:33:51;9.00;;;3.30;;
9629;SDS011;16022;50.884;4.698;2022-07-26T03:36:19;12.15;;;3.47;;
9629;SDS011;16022;50.884;4.698;2022-07-26T03:38:46;10.80;;;3.42;;
9629;SDS011;16022;50.884;4.698;2022-07-26T03:41:19;15.23;;;3.60;;
9629;SDS011;16022;50.884;4.698;2022-07-26T03:43:46;13.25;;;4.45;;
9629;SDS011;16022;50.884;4.698;2022-07-26T03:46:15;10.55;;;3.50;;
9629;SDS011;16022;50.884;4.698;2022-07-26T03:48:43;11.48;;;3.35;;
9629;SDS011;16022;50.884;4.698;2022-07-26T03:51:10;16.77;;;4.68;;
9629;SDS011;16022;50.884;4.698;2022-07-26T03:53:38;12.75;;;3.50;;
9629;SDS011;16022;50.884;4.698;2022-07-26T03:56:06;12.82;;;3.78;;
9629;SDS011;16022;50.884;4.698;2022-07-26T03:58:54;14.45;;;3.83;;
9629;SDS011;16022;50.884;4.698;2022-07-26T04:01:35;15.48;;;3.80;;
9629;SDS011;16022;50.884;4.698;2022-07-26T04:04:08;14.60;;;3.70;;
9629;SDS011;16022;50.884;4.698;2022-07-26T04:06:37;14.50;;;4.10;;
9629;SDS011;16022;50.884;4.698;2022-07-26T04:09:06;12.90;;;3.92;;
9629;SDS011;16022;50.884;4.698;2022-07-26T04:11:33;11.60;;;3.85;;
9629;SDS011;16022;50.884;4.698;2022-07-26T04:14:01;11.43;;;3.53;;
9629;SDS011;16022;50.884;4.698;2022-07-26T04:16:29;12.40;;;3.83;;
9629;SDS011;16022;50.884;4.698;2022-07-26T04:18:57;16.02;;;4.45;;
9629;SDS011;16022;50.884;4.698;2022-07-26T04:21:24;12.20;;;3.70;;
9629;SDS011;16022;50.884;4.698;2022-07-26T04:23:52;17.08;;;4.55;;
9629;SDS011;16022;50.884;4.698;2022-07-26T04:26:20;15.68;;;3.78;;
9629;SDS011;16022;50.884;4.698;2022-07-26T04:28:47;17.05;;;4.43;;
9629;SDS011;16022;50.884;4.698;2022-07-26T04:31:15;13.88;;;4.15;;
9629;SDS011;16022;50.884;4.698;2022-07-26T04:33:43;15.82;;;4.00;;
9629;SDS011;16022;50.884;4.698;2022-07-26T04:36:14;14.10;;;3.83;;
9629;SDS011;16022;50.884;4.698;2022-07-26T04:38:41;13.88;;;3.70;;
9629;SDS011;16022;50.884;4.698;2022-07-26T04:41:09;11.30;;;3.90;;
9629;SDS011;16022;50.884;4.698;2022-07-26T04:43:37;13.18;;;4.35;;
9629;SDS011;16022;50.884;4.698;2022-07-26T04:46:04;13.85;;;3.88;;
9629;SDS011;16022;50.884;4.698;2022-07-26T04:48:32;15.70;;;4.30;;
9629;SDS011;16022;50.884;4.698;2022-07-26T04:51:00;11.35;;;3.72;;
9629;SDS011;16022;50.884;4.698;2022-07-26T04:53:28;13.13;;;3.75;;
9629;SDS011;16022;50.884;4.698;2022-07-26T04:55:56;9.82;;;3.50;;
9629;SDS011;16022;50.884;4.698;2022-07-26T04:58:24;12.23;;;4.22;;
9629;SDS011;16022;50.884;4.698;2022-07-26T05:00:51;13.88;;;4.40;;
9629;SDS011;16022;50.884;4.698;2022-07-26T05:03:35;13.55;;;4.28;;
9629;SDS011;16022;50.884;4.698;2022-07-26T05:06:03;14.40;;;4.10;;
9629;SDS011;16022;50.884;4.698;2022-07-26T05:08:31;19.10;;;4.45;;
9629;SDS011;16022;50.884;4.698;2022-07-26T05:11:00;13.88;;;4.00;;
9629;SDS011;16022;50.884;4.698;2022-07-26T05:13:27;15.02;;;4.35;;
9629;SDS011;16022;50.884;4.698;2022-07-26T05:15:56;11.70;;;4.15;;
9629;SDS011;16022;50.884;4.698;2022-07-26T05:18:25;10.07;;;3.50;;
9629;SDS011;16022;50.884;4.698;2022-07-26T05:20:54;12.80;;;3.78;;
9629;SDS011;16022;50.884;4.698;2022-07-26T05:23:22;16.83;;;4.13;;
9629;SDS011;16022;50.884;4.698;2022-07-26T05:25:50;12.40;;;3.80;;
9629;SDS011;16022;50.884;4.698;2022-07-26T05:28:17;12.48;;;3.97;;
9629;SDS011;16022;50.884;4.698;2022-07-26T05:30:45;10.13;;;3.92;;
9629;SDS011;16022;50.884;4.698;2022-07-26T05:33:13;8.50;;;3.20;;
9629;SDS011;16022;50.884;4.698;2022-07-26T05:35:42;11.15;;;4.30;;
9629;SDS011;16022;50.884;4.698;2022-07-26T05:38:09;10.57;;;3.83;;
9629;SDS011;16022;50.884;4.698;2022-07-26T05:40:37;9.13;;;3.47;;
9629;SDS011;16022;50.884;4.698;2022-07-26T05:43:05;10.10;;;3.50;;
9629;SDS011;16022;50.884;4.698;2022-07-26T05:45:33;11.85;;;3.67;;
9629;SDS011;16022;50.884;4.698;2022-07-26T05:48:00;13.27;;;4.22;;
9629;SDS011;16022;50.884;4.698;2022-07-26T05:50:28;13.95;;;4.03;;
9629;SDS011;16022;50.884;4.698;2022-07-26T05:52:56;12.25;;;4.22;;
9629;SDS011;16022;50.884;4.698;2022-07-26T05:55:23;10.32;;;3.53;;
9629;SDS011;16022;50.884;4.698;2022-07-26T05:57:52;12.05;;;3.83;;
9629;SDS011;16022;50.884;4.698;2022-07-26T06:00:19;11.88;;;4.18;;
9629;SDS011;16022;50.884;4.698;2022-07-26T06:02:47;15.77;;;4.25;;
9629;SDS011;16022;50.884;4.698;2022-07-26T06:05:15;11.20;;;3.95;;
9629;SDS011;16022;50.884;4.698;2022-07-26T06:07:43;9.65;;;3.58;;
9629;SDS011;16022;50.884;4.698;2022-07-26T06:10:10;11.07;;;3.95;;
9629;SDS011;16022;50.884;4.698;2022-07-26T06:12:38;10.55;;;3.72;;
9629;SDS011;16022;50.884;4.698;2022-07-26T06:15:05;17.58;;;4.20;;
9629;SDS011;16022;50.884;4.698;2022-07-26T06:17:47;8.80;;;3.47;;
9629;SDS011;16022;50.884;4.698;2022-07-26T06:20:17;13.27;;;3.63;;
9629;SDS011;16022;50.884;4.698;2022-07-26T06:22:44;10.45;;;3.80;;
9629;SDS011;16022;50.884;4.698;2022-07-26T06:25:12;10.95;;;3.42;;
9629;SDS011;16022;50.884;4.698;2022-07-26T06:27:39;11.95;;;3.97;;
9629;SDS011;16022;50.884;4.698;2022-07-26T06:30:07;9.93;;;3.30;;
9629;SDS011;16022;50.884;4.698;2022-07-26T06:32:35;9.35;;;3.55;;
9629;SDS011;16022;50.884;4.698;2022-07-26T06:35:03;12.07;;;3.22;;
9629;SDS011;16022;50.884;4.698;2022-07-26T06:37:31;6.70;;;2.85;;
9629;SDS011;16022;50.884;4.698;2022-07-26T06:39:58;9.57;;;3.63;;
9629;SDS011;16022;50.884;4.698;2022-07-26T06:42:26;9.57;;;3.20;;
9629;SDS011;16022;50.884;4.698;2022-07-26T06:44:53;7.63;;;3.30;;
9629;SDS011;16022;50.884;4.698;2022-07-26T06:47:21;10.38;;;3.55;;
9629;SDS011;16022;50.884;4.698;2022-07-26T06:49:49;8.07;;;3.20;;
9629;SDS011;16022;50.884;4.698;2022-07-26T06:52:16;7.15;;;3.28;;
9629;SDS011;16022;50.884;4.698;2022-07-26T06:54:44;7.22;;;3.33;;
9629;SDS011;16022;50.884;4.698;2022-07-26T06:57:11;10.05;;;3.45;;
9629;SDS011;16022;50.884;4.698;2022-07-26T06:59:39;9.00;;;3.42;;
9629;SDS011;16022;50.884;4.698;2022-07-26T07:02:07;5.28;;;2.58;;
9629;SDS011;16022;50.884;4.698;2022-07-26T07:04:34;6.97;;;2.72;;
9629;SDS011;16022;50.884;4.698;2022-07-26T07:07:02;10.27;;;2.95;;
9629;SDS011;16022;50.884;4.698;2022-07-26T07:09:34;11.43;;;3.05;;
9629;SDS011;16022;50.884;4.698;2022-07-26T07:12:03;7.15;;;2.70;;
9629;SDS011;16022;50.884;4.698;2022-07-26T07:14:36;9.90;;;2.95;;
9629;SDS011;16022;50.884;4.698;2022-07-26T07:17:03;7.03;;;2.83;;
9629;SDS011;16022;50.884;4.698;2022-07-26T07:19:39;5.82;;;2.95;;
9629;SDS011;16022;50.884;4.698;2022-07-26T07:22:06;8.32;;;2.70;;
9629;SDS011;16022;50.884;4.698;2022-07-26T07:24:38;5.38;;;2.80;;
9629;SDS011;16022;50.884;4.698;2022-07-26T07:27:06;7.20;;;2.80;;
9629;SDS011;16022;50.884;4.698;2022-07-26T07:29:35;8.20;;;2.70;;
9629;SDS011;16022;50.884;4.698;2022-07-26T07:32:02;10.90;;;3.03;;
9629;SDS011;16022;50.884;4.698;2022-07-26T07:34:30;8.60;;;3.22;;
9629;SDS011;16022;50.884;4.698;2022-07-26T07:36:59;8.38;;;2.67;;
9629;SDS011;16022;50.884;4.698;2022-07-26T07:39:28;9.02;;;3.05;;
9629;SDS011;16022;50.884;4.698;2022-07-26T07:42:04;10.25;;;2.90;;
9629;SDS011;16022;50.884;4.698;2022-07-26T07:44:31;12.90;;;2.95;;
9629;SDS011;16022;50.884;4.698;2022-07-26T07:46:59;9.93;;;3.08;;
9629;SDS011;16022;50.884;4.698;2022-07-26T07:49:27;8.60;;;2.97;;
9629;SDS011;16022;50.884;4.698;2022-07-26T07:51:54;8.75;;;2.80;;
9629;SDS011;16022;50.884;4.698;2022-07-26T07:54:22;9.80;;;3.20;;
9629;SDS011;16022;50.884;4.698;2022-07-26T07:56:50;8.52;;;3.17;;
9629;SDS011;16022;50.884;4.698;2022-07-26T07:59:18;11.15;;;2.60;;
9629;SDS011;16022;50.884;4.698;2022-07-26T08:01:48;11.50;;;2.88;;
9629;SDS011;16022;50.884;4.698;2022-07-26T08:04:16;8.70;;;2.97;;
9629;SDS011;16022;50.884;4.698;2022-07-26T08:06:43;7.15;;;2.83;;
9629;SDS011;16022;50.884;4.698;2022-07-26T08:09:16;7.18;;;2.75;;
9629;SDS011;16022;50.884;4.698;2022-07-26T08:11:44;9.65;;;2.95;;
9629;SDS011;16022;50.884;4.698;2022-07-26T08:14:16;8.23;;;2.90;;
9629;SDS011;16022;50.884;4.698;2022-07-26T08:16:44;7.55;;;3.13;;
9629;SDS011;16022;50.884;4.698;2022-07-26T08:19:12;10.25;;;2.70;;
9629;SDS011;16022;50.884;4.698;2022-07-26T08:21:41;7.18;;;2.63;;
9629;SDS011;16022;50.884;4.698;2022-07-26T08:24:12;9.32;;;2.63;;
9629;SDS011;16022;50.884;4.698;2022-07-26T08:26:40;9.60;;;2.65;;
9629;SDS011;16022;50.884;4.698;2022-07-26T08:29:07;5.18;;;2.38;;
9629;SDS011;16022;50.884;4.698;2022-07-26T08:31:35;8.75;;;2.60;;
9629;SDS011;16022;50.884;4.698;2022-07-26T08:34:04;7.25;;;2.58;;
9629;SDS011;16022;50.884;4.698;2022-07-26T08:36:33;9.82;;;2.90;;
9629;SDS011;16022;50.884;4.698;2022-07-26T08:39:01;6.88;;;2.80;;
9629;SDS011;16022;50.884;4.698;2022-07-26T08:41:31;6.45;;;2.28;;
9629;SDS011;16022;50.884;4.698;2022-07-26T08:44:04;7.05;;;2.63;;
9629;SDS011;16022;50.884;4.698;2022-07-26T08:46:34;5.43;;;2.00;;
9629;SDS011;16022;50.884;4.698;2022-07-26T08:49:02;7.25;;;2.45;;
9629;SDS011;16022;50.884;4.698;2022-07-26T08:51:31;6.60;;;2.63;;
9629;SDS011;16022;50.884;4.698;2022-07-26T08:53:59;5.80;;;2.42;;
9629;SDS011;16022;50.884;4.698;2022-07-26T08:56:35;4.68;;;2.20;;
9629;SDS011;16022;50.884;4.698;2022-07-26T08:59:03;9.38;;;2.53;;
9629;SDS011;16022;50.884;4.698;2022-07-26T09:01:32;7.80;;;2.55;;
9629;SDS011;16022;50.884;4.698;2022-07-26T09:04:16;3.58;;;1.92;;
9629;SDS011;16022;50.884;4.698;2022-07-26T09:09:30;6.72;;;2.42;;
9629;SDS011;16022;50.884;4.698;2022-07-26T09:12:20;8.00;;;2.30;;
9629;SDS011;16022;50.884;4.698;2022-07-26T09:14:49;7.53;;;2.40;;
9629;SDS011;16022;50.884;4.698;2022-07-26T09:17:21;4.28;;;1.92;;
9629;SDS011;16022;50.884;4.698;2022-07-26T09:20:09;6.57;;;2.08;;
9629;SDS011;16022;50.884;4.698;2022-07-26T09:22:39;7.53;;;2.25;;
9629;SDS011;16022;50.884;4.698;2022-07-26T09:25:22;6.63;;;2.22;;
9629;SDS011;16022;50.884;4.698;2022-07-26T09:27:50;4.20;;;1.95;;
9629;SDS011;16022;50.884;4.698;2022-07-26T09:30:18;4.78;;;1.98;;
9629;SDS011;16022;50.884;4.698;2022-07-26T09:33:00;4.47;;;1.80;;
9629;SDS011;16022;50.884;4.698;2022-07-26T09:35:29;7.13;;;2.17;;
9629;SDS011;16022;50.884;4.698;2022-07-26T09:38:16;5.13;;;1.95;;
9629;SDS011;16022;50.884;4.698;2022-07-26T09:40:44;6.80;;;2.20;;
9629;SDS011;16022;50.884;4.698;2022-07-26T09:43:17;5.28;;;2.10;;
9629;SDS011;16022;50.884;4.698;2022-07-26T09:46:01;5.53;;;2.10;;
9629;SDS011;16022;50.884;4.698;2022-07-26T09:48:28;7.28;;;2.08;;
9629;SDS011;16022;50.884;4.698;2022-07-26T09:51:20;5.03;;;2.00;;
9629;SDS011;16022;50.884;4.698;2022-07-26T09:54:00;3.75;;;2.13;;
9629;SDS011;16022;50.884;4.698;2022-07-26T09:59:16;3.83;;;1.90;;
9629;SDS011;16022;50.884;4.698;2022-07-26T10:01:44;3.55;;;1.60;;
9629;SDS011;16022;50.884;4.698;2022-07-26T10:04:12;4.97;;;2.08;;
9629;SDS011;16022;50.884;4.698;2022-07-26T10:06:40;4.30;;;1.88;;
9629;SDS011;16022;50.884;4.698;2022-07-26T10:09:08;5.97;;;2.08;;
9629;SDS011;16022;50.884;4.698;2022-07-26T10:14:33;4.22;;;2.00;;
9629;SDS011;16022;50.884;4.698;2022-07-26T10:19:58;4.45;;;2.20;;
9629;SDS011;16022;50.884;4.698;2022-07-26T10:25:44;4.13;;;1.80;;
9629;SDS011;16022;50.884;4.698;2022-07-26T10:27:47;5.28;;;1.50;;
9629;SDS011;16022;50.884;4.698;2022-07-26T10:33:02;3.05;;;1.80;;
9629;SDS011;16022;50.884;4.698;2022-07-26T10:41:00;5.65;;;2.00;;
9629;SDS011;16022;50.884;4.698;2022-07-26T10:43:29;4.38;;;1.77;;
9629;SDS011;16022;50.884;4.698;2022-07-26T10:48:58;4.80;;;1.80;;
9629;SDS011;16022;50.884;4.698;2022-07-26T10:51:33;3.95;;;1.60;;
9629;SDS011;16022;50.884;4.698;2022-07-26T10:54:02;1.70;;;1.30;;
9629;SDS011;16022;50.884;4.698;2022-07-26T10:56:30;3.20;;;1.33;;
9629;SDS011;16022;50.884;4.698;2022-07-26T10:58:59;5.63;;;1.85;;
9629;SDS011;16022;50.884;4.698;2022-07-26T11:01:35;2.45;;;1.50;;
9629;SDS011;16022;50.884;4.698;2022-07-26T11:04:02;3.22;;;1.50;;
9629;SDS011;16022;50.884;4.698;2022-07-26T11:06:30;5.80;;;1.70;;
9629;SDS011;16022;50.884;4.698;2022-07-26T11:09:04;2.42;;;1.50;;
9629;SDS011;16022;50.884;4.698;2022-07-26T11:11:35;3.22;;;1.67;;
9629;SDS011;16022;50.884;4.698;2022-07-26T11:14:07;3.63;;;1.63;;
9629;SDS011;16022;50.884;4.698;2022-07-26T11:16:42;3.28;;;1.63;;
9629;SDS011;16022;50.884;4.698;2022-07-26T11:19:18;4.22;;;1.63;;
9629;SDS011;16022;50.884;4.698;2022-07-26T11:21:52;3.85;;;1.50;;
9629;SDS011;16022;50.884;4.698;2022-07-26T11:24:19;3.85;;;1.67;;
9629;SDS011;16022;50.884;4.698;2022-07-26T11:26:47;5.47;;;2.00;;
9629;SDS011;16022;50.884;4.698;2022-07-26T11:29:15;3.17;;;1.40;;
9629;SDS011;16022;50.884;4.698;2022-07-26T11:32:05;4.88;;;1.60;;
9629;SDS011;16022;50.884;4.698;2022-07-26T11:34:42;3.85;;;1.50;;
9629;SDS011;16022;50.884;4.698;2022-07-26T11:37:11;4.97;;;1.58;;
9629;SDS011;16022;50.884;4.698;2022-07-26T11:39:38;3.08;;;1.50;;
9629;SDS011;16022;50.884;4.698;2022-07-26T11:42:07;2.53;;;1.48;;
9629;SDS011;16022;50.884;4.698;2022-07-26T11:44:35;4.68;;;1.70;;
9629;SDS011;16022;50.884;4.698;2022-07-26T11:47:10;3.55;;;1.40;;
9629;SDS011;16022;50.884;4.698;2022-07-26T11:49:40;3.30;;;1.33;;
9629;SDS011;16022;50.884;4.698;2022-07-26T11:52:28;2.85;;;1.33;;
9629;SDS011;16022;50.884;4.698;2022-07-26T11:54:57;2.88;;;1.20;;
9629;SDS011;16022;50.884;4.698;2022-07-26T11:57:28;2.00;;;1.20;;
9629;SDS011;16022;50.884;4.698;2022-07-26T11:59:57;1.48;;;1.20;;
9629;SDS011;16022;50.884;4.698;2022-07-26T12:02:27;1.08;;;0.98;;
9629;SDS011;16022;50.884;4.698;2022-07-26T12:05:11;2.58;;;0.90;;
9629;SDS011;16022;50.884;4.698;2022-07-26T12:08:02;1.08;;;0.80;;
9629;SDS011;16022;50.884;4.698;2022-07-26T12:10:31;0.93;;;0.85;;
9629;SDS011;16022;50.884;4.698;2022-07-26T12:13:09;1.92;;;1.00;;
9629;SDS011;16022;50.884;4.698;2022-07-26T12:15:48;0.95;;;0.77;;
9629;SDS011;16022;50.884;4.698;2022-07-26T12:18:22;2.28;;;1.00;;
9629;SDS011;16022;50.884;4.698;2022-07-26T12:20:57;2.40;;;1.25;;
9629;SDS011;16022;50.884;4.698;2022-07-26T12:23:46;4.70;;;1.30;;
9629;SDS011;16022;50.884;4.698;2022-07-26T12:26:21;0.85;;;0.85;;
9629;SDS011;16022;50.884;4.698;2022-07-26T12:28:49;1.88;;;0.80;;
9629;SDS011;16022;50.884;4.698;2022-07-26T12:31:20;1.48;;;0.73;;
9629;SDS011;16022;50.884;4.698;2022-07-26T12:33:49;1.25;;;0.70;;
9629;SDS011;16022;50.884;4.698;2022-07-26T12:36:17;1.95;;;1.00;;
9629;SDS011;16022;50.884;4.698;2022-07-26T12:38:53;1.27;;;0.80;;
9629;SDS011;16022;50.884;4.698;2022-07-26T12:41:31;0.75;;;0.70;;
9629;SDS011;16022;50.884;4.698;2022-07-26T12:43:59;1.73;;;0.90;;
9629;SDS011;16022;50.884;4.698;2022-07-26T12:46:26;1.05;;;0.95;;
9629;SDS011;16022;50.884;4.698;2022-07-26T12:48:57;2.53;;;1.10;;
9629;SDS011;16022;50.884;4.698;2022-07-26T12:51:27;1.38;;;0.75;;
9629;SDS011;16022;50.884;4.698;2022-07-26T12:53:55;2.70;;;1.10;;
9629;SDS011;16022;50.884;4.698;2022-07-26T12:56:22;0.98;;;0.90;;
9629;SDS011;16022;50.884;4.698;2022-07-26T12:58:50;1.65;;;0.85;;
9629;SDS011;16022;50.884;4.698;2022-07-26T13:01:19;4.20;;;1.08;;
9629;SDS011;16022;50.884;4.698;2022-07-26T13:03:47;0.80;;;0.80;;
9629;SDS011;16022;50.884;4.698;2022-07-26T13:06:15;0.95;;;0.95;;
9629;SDS011;16022;50.884;4.698;2022-07-26T13:08:43;2.13;;;1.00;;
9629;SDS011;16022;50.884;4.698;2022-07-26T13:13:44;0.98;;;0.70;;
9629;SDS011;16022;50.884;4.698;2022-07-26T13:16:11;0.98;;;0.98;;
9629;SDS011;16022;50.884;4.698;2022-07-26T13:18:39;0.98;;;0.80;;
9629;SDS011;16022;50.884;4.698;2022-07-26T13:21:07;1.00;;;0.90;;
9629;SDS011;16022;50.884;4.698;2022-07-26T13:23:36;1.67;;;1.10;;
9629;SDS011;16022;50.884;4.698;2022-07-26T13:26:06;1.80;;;0.90;;
9629;SDS011;16022;50.884;4.698;2022-07-26T13:28:35;1.95;;;0.82;;
9629;SDS011;16022;50.884;4.698;2022-07-26T13:31:03;1.90;;;0.80;;
9629;SDS011;16022;50.884;4.698;2022-07-26T13:33:31;1.25;;;0.60;;
9629;SDS011;16022;50.884;4.698;2022-07-26T13:35:59;1.23;;;0.73;;
9629;SDS011;16022;50.884;4.698;2022-07-26T13:38:27;0.80;;;0.70;;
9629;SDS011;16022;50.884;4.698;2022-07-26T13:40:59;1.00;;;0.80;;
9629;SDS011;16022;50.884;4.698;2022-07-26T13:43:29;2.25;;;0.90;;
9629;SDS011;16022;50.884;4.698;2022-07-26T13:45:57;0.80;;;0.70;;
9629;SDS011;16022;50.884;4.698;2022-07-26T13:48:25;1.65;;;0.88;;
9629;SDS011;16022;50.884;4.698;2022-07-26T13:50:53;1.85;;;1.10;;
9629;SDS011;16022;50.884;4.698;2022-07-26T13:53:24;1.35;;;0.95;;
9629;SDS011;16022;50.884;4.698;2022-07-26T13:55:52;1.58;;;1.20;;
9629;SDS011;16022;50.884;4.698;2022-07-26T13:58:20;1.58;;;1.10;;
9629;SDS011;16022;50.884;4.698;2022-07-26T14:00:51;2.08;;;1.17;;
9629;SDS011;16022;50.884;4.698;2022-07-26T14:03:19;2.28;;;1.13;;
9629;SDS011;16022;50.884;4.698;2022-07-26T14:05:47;1.85;;;1.20;;
9629;SDS011;16022;50.884;4.698;2022-07-26T14:08:15;2.17;;;1.30;;
9629;SDS011;16022;50.884;4.698;2022-07-26T14:10:43;1.65;;;1.10;;
9629;SDS011;16022;50.884;4.698;2022-07-26T14:13:11;3.55;;;1.40;;
9629;SDS011;16022;50.884;4.698;2022-07-26T14:15:39;2.45;;;1.50;;
9629;SDS011;16022;50.884;4.698;2022-07-26T14:18:06;2.35;;;1.38;;
9629;SDS011;16022;50.884;4.698;2022-07-26T14:20:34;2.45;;;1.60;;
9629;SDS011;16022;50.884;4.698;2022-07-26T14:23:02;5.10;;;1.92;;
9629;SDS011;16022;50.884;4.698;2022-07-26T14:25:30;5.03;;;2.00;;
9629;SDS011;16022;50.884;4.698;2022-07-26T14:27:58;3.13;;;1.40;;
9629;SDS011;16022;50.884;4.698;2022-07-26T14:30:27;1.30;;;1.20;;
9629;SDS011;16022;50.884;4.698;2022-07-26T14:32:55;4.05;;;1.80;;
9629;SDS011;16022;50.884;4.698;2022-07-26T14:35:22;3.25;;;1.88;;
9629;SDS011;16022;50.884;4.698;2022-07-26T14:37:50;1.92;;;1.73;;
9629;SDS011;16022;50.884;4.698;2022-07-26T14:40:18;2.58;;;1.80;;
9629;SDS011;16022;50.884;4.698;2022-07-26T14:42:46;2.38;;;2.17;;
9629;SDS011;16022;50.884;4.698;2022-07-26T14:45:14;3.28;;;2.22;;
9629;SDS011;16022;50.884;4.698;2022-07-26T14:47:42;2.45;;;2.17;;
9629;SDS011;16022;50.884;4.698;2022-07-26T14:50:10;4.78;;;2.67;;
9629;SDS011;16022;50.884;4.698;2022-07-26T14:52:43;4.13;;;2.10;;
9629;SDS011;16022;50.884;4.698;2022-07-26T14:55:11;3.08;;;1.92;;
9629;SDS011;16022;50.884;4.698;2022-07-26T14:57:39;4.07;;;2.13;;
9629;SDS011;16022;50.884;4.698;2022-07-26T15:00:08;3.95;;;2.35;;
9629;SDS011;16022;50.884;4.698;2022-07-26T15:02:37;4.85;;;2.17;;
9629;SDS011;16022;50.884;4.698;2022-07-26T15:05:05;2.55;;;2.13;;
9629;SDS011;16022;50.884;4.698;2022-07-26T15:07:32;2.97;;;1.98;;
9629;SDS011;16022;50.884;4.698;2022-07-26T15:10:02;2.67;;;1.73;;
9629;SDS011;16022;50.884;4.698;2022-07-26T15:12:30;2.83;;;1.90;;
9629;SDS011;16022;50.884;4.698;2022-07-26T15:14:58;3.92;;;1.60;;
9629;SDS011;16022;50.884;4.698;2022-07-26T15:17:25;4.60;;;2.03;;
9629;SDS011;16022;50.884;4.698;2022-07-26T15:19:53;2.88;;;1.55;;
9629;SDS011;16022;50.884;4.698;2022-07-26T15:22:21;3.70;;;1.48;;
9629;SDS011;16022;50.884;4.698;2022-07-26T15:24:48;3.03;;;1.50;;
9629;SDS011;16022;50.884;4.698;2022-07-26T15:27:16;2.78;;;1.88;;
9629;SDS011;16022;50.884;4.698;2022-07-26T15:29:44;3.70;;;1.30;;
9629;SDS011;16022;50.884;4.698;2022-07-26T15:32:14;8.13;;;1.67;;
9629;SDS011;16022;50.884;4.698;2022-07-26T15:34:41;2.85;;;1.30;;
9629;SDS011;16022;50.884;4.698;2022-07-26T15:37:10;3.22;;;1.90;;
9629;SDS011;16022;50.884;4.698;2022-07-26T15:39:38;3.70;;;1.70;;
9629;SDS011;16022;50.884;4.698;2022-07-26T15:42:05;6.45;;;1.83;;
9629;SDS011;16022;50.884;4.698;2022-07-26T15:44:35;4.80;;;1.75;;
9629;SDS011;16022;50.884;4.698;2022-07-26T15:47:04;2.35;;;1.40;;